sensor_id;sensor_type;location;lat;lon;timestamp;pressure;altitude;pressure_sealevel;temperature;humidity
52535;BME280;38443;53.164;5.802;2022-12-18T00:01:02;102923.66;;;-5.15;100.00
52535;BME280;38443;53.164;5.802;2022-12-18T00:03:33;102934.16;;;-5.13;100.00
52535;BME280;38443;53.164;5.802;2022-12-18T00:05:58;102923.84;;;-5.12;100.00
52535;BME280;38443;53.164;5.802;2022-12-18T00:08:24;102922.03;;;-5.13;100.00
52535;BME280;38443;53.164;5.802;2022-12-18T00:10:49;102922.94;;;-5.12;100.00
52535;BME280;38443;53.164;5.802;2022-12-18T00:13:14;102924.66;;;-5.13;100.00
52535;BME280;38443;53.164;5.802;2022-12-18T00:15:40;102932.38;;;-5.14;100.00
52535;BME280;38443;53.164;5.802;2022-12-18T00:18:05;102934.09;;;-5.15;100.00
52535;BME280;38443;53.164;5.802;2022-12-18T00:20:31;102924.31;;;-5.17;100.00
52535;BME280;38443;53.164;5.802;2022-12-18T00:22:56;102924.91;;;-5.22;100.00
52535;BME280;38443;53.164;5.802;2022-12-18T00:25:22;102936.06;;;-5.24;100.00
52535;BME280;38443;53.164;5.802;2022-12-18T00:27:48;102943.09;;;-5.23;100.00
52535;BME280;38443;53.164;5.802;2022-12-18T00:30:13;102944.00;;;-5.23;100.00
52535;BME280;38443;53.164;5.802;2022-12-18T00:32:39;102939.56;;;-5.24;100.00
52535;BME280;38443;53.164;5.802;2022-12-18T00:35:05;102940.38;;;-5.25;100.00
52535;BME280;38443;53.164;5.802;2022-12-18T00:37:31;102938.66;;;-5.24;100.00
52535;BME280;38443;53.164;5.802;2022-12-18T00:39:58;102943.19;;;-5.22;100.00
52535;BME280;38443;53.164;5.802;2022-12-18T00:42:23;102944.13;;;-5.21;100.00
52535;BME280;38443;53.164;5.802;2022-12-18T00:45:18;102946.72;;;-5.21;100.00
52535;BME280;38443;53.164;5.802;2022-12-18T00:47:43;102945.59;;;-5.25;100.00
52535;BME280;38443;53.164;5.802;2022-12-18T00:50:09;102957.84;;;-5.24;100.00
52535;BME280;38443;53.164;5.802;2022-12-18T00:52:34;102951.59;;;-5.26;100.00
52535;BME280;38443;53.164;5.802;2022-12-18T00:54:59;102947.31;;;-5.25;100.00
52535;BME280;38443;53.164;5.802;2022-12-18T00:57:25;102941.16;;;-5.26;100.00
52535;BME280;38443;53.164;5.802;2022-12-18T00:59:50;102939.56;;;-5.24;100.00
52535;BME280;38443;53.164;5.802;2022-12-18T01:02:15;102942.88;;;-5.26;100.00
52535;BME280;38443;53.164;5.802;2022-12-18T01:04:41;102955.91;;;-5.26;100.00
52535;BME280;38443;53.164;5.802;2022-12-18T01:07:06;102956.50;;;-5.30;100.00
52535;BME280;38443;53.164;5.802;2022-12-18T01:09:32;102959.81;;;-5.33;100.00
52535;BME280;38443;53.164;5.802;2022-12-18T01:11:57;102960.50;;;-5.35;100.00
52535;BME280;38443;53.164;5.802;2022-12-18T01:14:22;102957.09;;;-5.34;100.00
52535;BME280;38443;53.164;5.802;2022-12-18T01:16:47;102944.63;;;-5.38;100.00
52535;BME280;38443;53.164;5.802;2022-12-18T01:19:13;102955.06;;;-5.38;100.00
52535;BME280;38443;53.164;5.802;2022-12-18T01:21:38;102951.94;;;-5.46;100.00
52535;BME280;38443;53.164;5.802;2022-12-18T01:24:05;102951.94;;;-5.46;100.00
52535;BME280;38443;53.164;5.802;2022-12-18T01:26:31;102944.22;;;-5.45;100.00
52535;BME280;38443;53.164;5.802;2022-12-18T01:28:56;102949.19;;;-5.48;100.00
52535;BME280;38443;53.164;5.802;2022-12-18T01:31:28;102958.03;;;-5.46;100.00
52535;BME280;38443;53.164;5.802;2022-12-18T01:33:55;102957.16;;;-5.46;100.00
52535;BME280;38443;53.164;5.802;2022-12-18T01:36:32;102965.66;;;-5.49;100.00
52535;BME280;38443;53.164;5.802;2022-12-18T01:39:04;102973.38;;;-5.50;100.00
52535;BME280;38443;53.164;5.802;2022-12-18T01:41:31;102987.13;;;-5.53;100.00
52535;BME280;38443;53.164;5.802;2022-12-18T01:47:23;102995.03;;;-5.51;100.00
52535;BME280;38443;53.164;5.802;2022-12-18T01:49:50;102991.53;;;-5.52;100.00
52535;BME280;38443;53.164;5.802;2022-12-18T01:52:15;102986.91;;;-5.56;100.00
52535;BME280;38443;53.164;5.802;2022-12-18T01:54:42;102990.31;;;-5.57;100.00
52535;BME280;38443;53.164;5.802;2022-12-18T01:57:11;102991.91;;;-5.59;100.00
52535;BME280;38443;53.164;5.802;2022-12-18T01:59:36;102992.69;;;-5.60;100.00
52535;BME280;38443;53.164;5.802;2022-12-18T02:02:02;102995.09;;;-5.63;100.00
52535;BME280;38443;53.164;5.802;2022-12-18T02:04:28;102994.16;;;-5.64;100.00
52535;BME280;38443;53.164;5.802;2022-12-18T02:07:05;102981.81;;;-5.66;100.00
52535;BME280;38443;53.164;5.802;2022-12-18T02:09:44;102990.47;;;-5.67;100.00
52535;BME280;38443;53.164;5.802;2022-12-18T02:12:20;102986.81;;;-5.69;100.00
52535;BME280;38443;53.164;5.802;2022-12-18T02:17:51;102988.41;;;-5.71;100.00
52535;BME280;38443;53.164;5.802;2022-12-18T02:20:25;102985.59;;;-5.74;100.00
52535;BME280;38443;53.164;5.802;2022-12-18T02:28:00;102965.88;;;-5.83;100.00
52535;BME280;38443;53.164;5.802;2022-12-18T02:30:30;102955.00;;;-5.89;100.00
52535;BME280;38443;53.164;5.802;2022-12-18T02:32:57;102953.19;;;-5.90;100.00
52535;BME280;38443;53.164;5.802;2022-12-18T02:35:26;102956.72;;;-5.89;100.00
52535;BME280;38443;53.164;5.802;2022-12-18T02:37:56;102966.03;;;-5.93;100.00
52535;BME280;38443;53.164;5.802;2022-12-18T02:40:24;102963.78;;;-6.00;100.00
52535;BME280;38443;53.164;5.802;2022-12-18T02:42:51;102964.38;;;-6.04;100.00
52535;BME280;38443;53.164;5.802;2022-12-18T02:45:16;102969.25;;;-6.09;100.00
52535;BME280;38443;53.164;5.802;2022-12-18T02:47:46;102959.41;;;-6.13;100.00
52535;BME280;38443;53.164;5.802;2022-12-18T02:50:43;102962.56;;;-6.17;100.00
52535;BME280;38443;53.164;5.802;2022-12-18T02:55:58;102946.13;;;-6.28;100.00
52535;BME280;38443;53.164;5.802;2022-12-18T02:58:32;102956.34;;;-6.31;100.00
52535;BME280;38443;53.164;5.802;2022-12-18T03:01:11;102943.91;;;-6.35;100.00
52535;BME280;38443;53.164;5.802;2022-12-18T03:03:43;102957.50;;;-6.39;100.00
52535;BME280;38443;53.164;5.802;2022-12-18T03:06:21;102959.84;;;-6.42;100.00
52535;BME280;38443;53.164;5.802;2022-12-18T03:08:52;102962.47;;;-6.42;100.00
52535;BME280;38443;53.164;5.802;2022-12-18T03:11:19;102966.53;;;-6.46;100.00
52535;BME280;38443;53.164;5.802;2022-12-18T03:14:06;102977.63;;;-6.48;100.00
52535;BME280;38443;53.164;5.802;2022-12-18T03:16:33;102970.50;;;-6.51;100.00
52535;BME280;38443;53.164;5.802;2022-12-18T03:19:16;102968.34;;;-6.56;100.00
52535;BME280;38443;53.164;5.802;2022-12-18T03:21:47;102970.72;;;-6.59;100.00
52535;BME280;38443;53.164;5.802;2022-12-18T03:24:17;102971.28;;;-6.64;100.00
52535;BME280;38443;53.164;5.802;2022-12-18T03:26:46;102979.00;;;-6.65;100.00
52535;BME280;38443;53.164;5.802;2022-12-18T03:29:16;102969.16;;;-6.69;100.00
52535;BME280;38443;53.164;5.802;2022-12-18T03:31:47;102971.38;;;-6.74;100.00
52535;BME280;38443;53.164;5.802;2022-12-18T03:34:17;102957.59;;;-6.73;100.00
52535;BME280;38443;53.164;5.802;2022-12-18T03:36:46;102957.59;;;-6.73;100.00
52535;BME280;38443;53.164;5.802;2022-12-18T03:39:11;102950.47;;;-6.75;100.00
52535;BME280;38443;53.164;5.802;2022-12-18T03:41:49;102954.66;;;-6.77;100.00
52535;BME280;38443;53.164;5.802;2022-12-18T03:44:28;102958.91;;;-6.78;100.00
52535;BME280;38443;53.164;5.802;2022-12-18T03:47:25;102953.59;;;-6.79;100.00
52535;BME280;38443;53.164;5.802;2022-12-18T03:54:51;102961.06;;;-6.84;100.00
52535;BME280;38443;53.164;5.802;2022-12-18T03:57:20;102976.47;;;-6.87;100.00
52535;BME280;38443;53.164;5.802;2022-12-18T03:59:48;102969.22;;;-6.91;100.00
52535;BME280;38443;53.164;5.802;2022-12-18T04:02:16;102970.69;;;-6.95;100.00
52535;BME280;38443;53.164;5.802;2022-12-18T04:04:43;102963.44;;;-6.99;100.00
52535;BME280;38443;53.164;5.802;2022-12-18T04:07:11;102963.31;;;-7.00;100.00
52535;BME280;38443;53.164;5.802;2022-12-18T04:09:38;102958.09;;;-7.00;100.00
52535;BME280;38443;53.164;5.802;2022-12-18T04:12:05;102948.47;;;-7.02;100.00
52535;BME280;38443;53.164;5.802;2022-12-18T04:14:30;102951.88;;;-7.03;100.00
52535;BME280;38443;53.164;5.802;2022-12-18T04:17:01;102946.41;;;-7.06;100.00
52535;BME280;38443;53.164;5.802;2022-12-18T04:19:26;102958.31;;;-7.09;100.00
52535;BME280;38443;53.164;5.802;2022-12-18T04:21:51;102955.34;;;-7.14;100.00
52535;BME280;38443;53.164;5.802;2022-12-18T04:24:17;102949.78;;;-7.18;100.00
52535;BME280;38443;53.164;5.802;2022-12-18T04:26:42;102951.25;;;-7.22;100.00
52535;BME280;38443;53.164;5.802;2022-12-18T04:29:07;102951.13;;;-7.24;100.00
52535;BME280;38443;53.164;5.802;2022-12-18T04:31:32;102938.78;;;-7.26;100.00
52535;BME280;38443;53.164;5.802;2022-12-18T04:33:58;102949.06;;;-7.28;100.00
52535;BME280;38443;53.164;5.802;2022-12-18T04:36:23;102940.25;;;-7.30;100.00
52535;BME280;38443;53.164;5.802;2022-12-18T04:38:48;102951.44;;;-7.31;100.00
52535;BME280;38443;53.164;5.802;2022-12-18T04:41:14;102945.44;;;-7.30;100.00
52535;BME280;38443;53.164;5.802;2022-12-18T04:43:39;102958.44;;;-7.30;100.00
52535;BME280;38443;53.164;5.802;2022-12-18T04:46:06;102968.84;;;-7.30;100.00
52535;BME280;38443;53.164;5.802;2022-12-18T04:48:31;102973.16;;;-7.30;100.00
52535;BME280;38443;53.164;5.802;2022-12-18T04:50:57;102968.75;;;-7.31;100.00
52535;BME280;38443;53.164;5.802;2022-12-18T04:53:22;102967.84;;;-7.32;100.00
52535;BME280;38443;53.164;5.802;2022-12-18T04:55:48;102969.31;;;-7.35;100.00
52535;BME280;38443;53.164;5.802;2022-12-18T04:58:13;102967.47;;;-7.36;100.00
52535;BME280;38443;53.164;5.802;2022-12-18T05:00:38;102961.94;;;-7.41;100.00
52535;BME280;38443;53.164;5.802;2022-12-18T05:03:05;102954.81;;;-7.44;100.00
52535;BME280;38443;53.164;5.802;2022-12-18T05:05:30;102960.44;;;-7.49;100.00
52535;BME280;38443;53.164;5.802;2022-12-18T05:07:56;102960.31;;;-7.51;100.00
52535;BME280;38443;53.164;5.802;2022-12-18T05:10:21;102960.06;;;-7.54;100.00
52535;BME280;38443;53.164;5.802;2022-12-18T05:12:46;102967.84;;;-7.54;100.00
52535;BME280;38443;53.164;5.802;2022-12-18T05:15:30;102959.28;;;-7.53;100.00
52535;BME280;38443;53.164;5.802;2022-12-18T05:18:00;102967.97;;;-7.52;100.00
52535;BME280;38443;53.164;5.802;2022-12-18T05:20:26;102975.66;;;-7.54;100.00
52535;BME280;38443;53.164;5.802;2022-12-18T05:22:52;102972.97;;;-7.55;100.00
52535;BME280;38443;53.164;5.802;2022-12-18T05:25:17;102982.88;;;-7.62;100.00
52535;BME280;38443;53.164;5.802;2022-12-18T05:27:43;102978.31;;;-7.64;100.00
52535;BME280;38443;53.164;5.802;2022-12-18T05:30:09;102992.75;;;-7.68;100.00
52535;BME280;38443;53.164;5.802;2022-12-18T05:32:35;102994.47;;;-7.68;100.00
52535;BME280;38443;53.164;5.802;2022-12-18T05:35:00;103014.38;;;-7.69;100.00
52535;BME280;38443;53.164;5.802;2022-12-18T05:37:26;103016.97;;;-7.69;100.00
52535;BME280;38443;53.164;5.802;2022-12-18T05:39:51;103021.91;;;-7.72;100.00
52535;BME280;38443;53.164;5.802;2022-12-18T05:42:16;103019.22;;;-7.73;100.00
52535;BME280;38443;53.164;5.802;2022-12-18T05:44:42;103024.28;;;-7.75;100.00
52535;BME280;38443;53.164;5.802;2022-12-18T05:47:11;103021.41;;;-7.78;100.00
52535;BME280;38443;53.164;5.802;2022-12-18T05:49:36;103031.72;;;-7.79;100.00
52535;BME280;38443;53.164;5.802;2022-12-18T05:52:01;103031.72;;;-7.79;100.00
52535;BME280;38443;53.164;5.802;2022-12-18T05:54:28;103030.00;;;-7.79;100.00
52535;BME280;38443;53.164;5.802;2022-12-18T05:56:53;103026.50;;;-7.79;100.00
52535;BME280;38443;53.164;5.802;2022-12-18T05:59:19;103015.97;;;-7.81;100.00
52535;BME280;38443;53.164;5.802;2022-12-18T06:01:44;103014.28;;;-7.80;100.00
52535;BME280;38443;53.164;5.802;2022-12-18T06:04:10;103013.25;;;-7.83;100.00
52535;BME280;38443;53.164;5.802;2022-12-18T06:06:35;103010.44;;;-7.86;100.00
52535;BME280;38443;53.164;5.802;2022-12-18T06:09:02;103000.78;;;-7.87;100.00
52535;BME280;38443;53.164;5.802;2022-12-18T06:11:33;103005.75;;;-7.90;100.00
52535;BME280;38443;53.164;5.802;2022-12-18T06:13:59;103012.41;;;-7.93;100.00
52535;BME280;38443;53.164;5.802;2022-12-18T06:16:24;103010.34;;;-7.97;100.00
52535;BME280;38443;53.164;5.802;2022-12-18T06:18:49;103005.69;;;-8.02;100.00
52535;BME280;38443;53.164;5.802;2022-12-18T06:21:15;102996.72;;;-8.05;100.00
52535;BME280;38443;53.164;5.802;2022-12-18T06:23:40;102974.91;;;-8.07;100.00
52535;BME280;38443;53.164;5.802;2022-12-18T06:26:06;102980.75;;;-8.10;100.00
52535;BME280;38443;53.164;5.802;2022-12-18T06:28:32;102975.44;;;-8.11;100.00
52535;BME280;38443;53.164;5.802;2022-12-18T06:30:57;102971.69;;;-8.15;100.00
52535;BME280;38443;53.164;5.802;2022-12-18T06:33:28;102972.22;;;-8.19;100.00
52535;BME280;38443;53.164;5.802;2022-12-18T06:35:54;102969.75;;;-8.17;100.00
52535;BME280;38443;53.164;5.802;2022-12-18T06:38:19;102965.47;;;-8.17;100.00
52535;BME280;38443;53.164;5.802;2022-12-18T06:40:44;102961.03;;;-8.18;100.00
52535;BME280;38443;53.164;5.802;2022-12-18T06:43:09;102960.81;;;-8.21;100.00
52535;BME280;38443;53.164;5.802;2022-12-18T06:45:35;102969.25;;;-8.24;100.00
52535;BME280;38443;53.164;5.802;2022-12-18T06:48:00;102974.72;;;-8.31;100.00
52535;BME280;38443;53.164;5.802;2022-12-18T06:50:26;102972.00;;;-8.32;100.00
52535;BME280;38443;53.164;5.802;2022-12-18T06:52:51;102964.75;;;-8.36;100.00
52535;BME280;38443;53.164;5.802;2022-12-18T08:16:19;102918.94;;;-7.92;100.00
52535;BME280;38443;53.164;5.802;2022-12-18T09:03:50;102941.78;;;-6.98;100.00
52535;BME280;38443;53.164;5.802;2022-12-18T09:07:32;102937.31;;;-6.89;100.00
52535;BME280;38443;53.164;5.802;2022-12-18T09:25:20;102931.53;;;-6.37;100.00
52535;BME280;38443;53.164;5.802;2022-12-18T09:34:12;102936.25;;;-6.08;100.00
52535;BME280;38443;53.164;5.802;2022-12-18T09:36:38;102934.91;;;-6.03;100.00
52535;BME280;38443;53.164;5.802;2022-12-18T09:39:04;102929.91;;;-6.00;100.00
52535;BME280;38443;53.164;5.802;2022-12-18T11:06:20;102814.47;;;-4.41;100.00
52535;BME280;38443;53.164;5.802;2022-12-18T11:16:51;102801.22;;;-4.15;100.00
52535;BME280;38443;53.164;5.802;2022-12-18T11:24:19;102781.66;;;-4.07;100.00
52535;BME280;38443;53.164;5.802;2022-12-18T11:37:24;102763.34;;;-4.07;100.00
52535;BME280;38443;53.164;5.802;2022-12-18T11:40:13;102757.22;;;-4.08;100.00
52535;BME280;38443;53.164;5.802;2022-12-18T11:42:48;102745.16;;;-4.06;100.00
52535;BME280;38443;53.164;5.802;2022-12-18T11:45:24;102740.91;;;-4.04;100.00
52535;BME280;38443;53.164;5.802;2022-12-18T11:48:14;102735.69;;;-4.04;100.00
52535;BME280;38443;53.164;5.802;2022-12-18T11:50:50;102724.44;;;-4.03;100.00
52535;BME280;38443;53.164;5.802;2022-12-18T11:53:16;102715.75;;;-4.02;100.00
52535;BME280;38443;53.164;5.802;2022-12-18T11:58:25;102700.06;;;-4.02;100.00
52535;BME280;38443;53.164;5.802;2022-12-18T12:06:57;102670.16;;;-4.07;100.00
52535;BME280;38443;53.164;5.802;2022-12-18T12:09:39;102680.59;;;-4.07;100.00
52535;BME280;38443;53.164;5.802;2022-12-18T12:12:19;102672.75;;;-4.07;100.00
52535;BME280;38443;53.164;5.802;2022-12-18T12:25:55;102661.50;;;-3.91;100.00
52535;BME280;38443;53.164;5.802;2022-12-18T12:39:28;102648.50;;;-3.74;100.00
52535;BME280;38443;53.164;5.802;2022-12-18T12:41:55;102645.16;;;-3.72;100.00
52535;BME280;38443;53.164;5.802;2022-12-18T12:44:43;102638.38;;;-3.68;100.00
52535;BME280;38443;53.164;5.802;2022-12-18T12:47:25;102624.47;;;-3.67;100.00
52535;BME280;38443;53.164;5.802;2022-12-18T12:49:52;102628.03;;;-3.67;100.00
52535;BME280;38443;53.164;5.802;2022-12-18T12:52:22;102631.44;;;-3.68;100.00
52535;BME280;38443;53.164;5.802;2022-12-18T12:54:51;102629.06;;;-3.63;100.00
52535;BME280;38443;53.164;5.802;2022-12-18T13:00:00;102639.63;;;-3.62;100.00
52535;BME280;38443;53.164;5.802;2022-12-18T13:07:59;102632.13;;;-3.55;100.00
52535;BME280;38443;53.164;5.802;2022-12-18T13:10:31;102629.59;;;-3.54;100.00
52535;BME280;38443;53.164;5.802;2022-12-18T13:20:43;102616.78;;;-3.49;100.00
52535;BME280;38443;53.164;5.802;2022-12-18T13:23:38;102614.16;;;-3.49;100.00
52535;BME280;38443;53.164;5.802;2022-12-18T13:34:23;102610.75;;;-3.48;100.00
52535;BME280;38443;53.164;5.802;2022-12-18T13:36:49;102605.59;;;-3.47;100.00
52535;BME280;38443;53.164;5.802;2022-12-18T13:41:49;102608.22;;;-3.47;100.00
52535;BME280;38443;53.164;5.802;2022-12-18T13:44:38;102605.50;;;-3.48;100.00
52535;BME280;38443;53.164;5.802;2022-12-18T13:47:28;102590.69;;;-3.48;100.00
52535;BME280;38443;53.164;5.802;2022-12-18T13:49:56;102581.13;;;-3.47;100.00
52535;BME280;38443;53.164;5.802;2022-12-18T13:52:23;102587.19;;;-3.48;100.00
52535;BME280;38443;53.164;5.802;2022-12-18T13:54:59;102590.88;;;-3.45;100.00
52535;BME280;38443;53.164;5.802;2022-12-18T13:57:30;102581.06;;;-3.49;100.00
52535;BME280;38443;53.164;5.802;2022-12-18T13:59:56;102587.34;;;-3.45;100.00
52535;BME280;38443;53.164;5.802;2022-12-18T14:02:26;102571.56;;;-3.47;100.00
52535;BME280;38443;53.164;5.802;2022-12-18T14:04:54;102569.75;;;-3.48;100.00
52535;BME280;38443;53.164;5.802;2022-12-18T14:07:25;102568.88;;;-3.48;100.00
52535;BME280;38443;53.164;5.802;2022-12-18T14:09:55;102564.44;;;-3.49;100.00
52535;BME280;38443;53.164;5.802;2022-12-18T14:12:27;102555.69;;;-3.50;100.00
52535;BME280;38443;53.164;5.802;2022-12-18T14:18:01;102551.34;;;-3.49;100.00
52535;BME280;38443;53.164;5.802;2022-12-18T14:20:29;102546.84;;;-3.52;100.00
52535;BME280;38443;53.164;5.802;2022-12-18T14:22:57;102532.03;;;-3.51;100.00
52535;BME280;38443;53.164;5.802;2022-12-18T14:25:25;102527.63;;;-3.52;100.00
52535;BME280;38443;53.164;5.802;2022-12-18T14:28:12;102528.34;;;-3.55;100.00
52535;BME280;38443;53.164;5.802;2022-12-18T14:30:43;102507.41;;;-3.55;100.00
52535;BME280;38443;53.164;5.802;2022-12-18T14:33:11;102504.00;;;-3.54;100.00
52535;BME280;38443;53.164;5.802;2022-12-18T14:35:39;102494.31;;;-3.55;100.00
52535;BME280;38443;53.164;5.802;2022-12-18T14:38:27;102494.31;;;-3.55;100.00
52535;BME280;38443;53.164;5.802;2022-12-18T14:43:20;102475.03;;;-3.57;100.00
52535;BME280;38443;53.164;5.802;2022-12-18T14:45:45;102470.53;;;-3.59;100.00
52535;BME280;38443;53.164;5.802;2022-12-18T14:50:36;102485.16;;;-3.63;100.00
52535;BME280;38443;53.164;5.802;2022-12-18T14:53:02;102486.22;;;-3.59;100.00
52535;BME280;38443;53.164;5.802;2022-12-18T14:55:28;102474.69;;;-3.63;100.00
52535;BME280;38443;53.164;5.802;2022-12-18T14:57:54;102473.78;;;-3.64;100.00
52535;BME280;38443;53.164;5.802;2022-12-18T15:00:22;102469.41;;;-3.65;100.00
52535;BME280;38443;53.164;5.802;2022-12-18T15:02:56;102468.47;;;-3.65;100.00
52535;BME280;38443;53.164;5.802;2022-12-18T15:05:31;102466.78;;;-3.65;100.00
52535;BME280;38443;53.164;5.802;2022-12-18T15:07:58;102463.31;;;-3.64;100.00
52535;BME280;38443;53.164;5.802;2022-12-18T15:10:34;102454.50;;;-3.66;100.00
52535;BME280;38443;53.164;5.802;2022-12-18T15:20:54;102437.81;;;-3.68;100.00
52535;BME280;38443;53.164;5.802;2022-12-18T15:23:37;102429.06;;;-3.68;100.00
52535;BME280;38443;53.164;5.802;2022-12-18T15:26:05;102420.38;;;-3.67;100.00
52535;BME280;38443;53.164;5.802;2022-12-18T15:28:51;102409.03;;;-3.68;100.00
52535;BME280;38443;53.164;5.802;2022-12-18T15:31:24;102407.41;;;-3.66;100.00
52535;BME280;38443;53.164;5.802;2022-12-18T15:36:20;102398.88;;;-3.62;100.00
52535;BME280;38443;53.164;5.802;2022-12-18T15:38:47;102394.53;;;-3.61;100.00
52535;BME280;38443;53.164;5.802;2022-12-18T15:41:13;102376.22;;;-3.61;100.00
52535;BME280;38443;53.164;5.802;2022-12-18T15:43:39;102377.06;;;-3.62;100.00
52535;BME280;38443;53.164;5.802;2022-12-18T15:46:25;102368.25;;;-3.64;100.00
52535;BME280;38443;53.164;5.802;2022-12-18T15:48:55;102377.97;;;-3.62;100.00
52535;BME280;38443;53.164;5.802;2022-12-18T15:51:25;102370.84;;;-3.64;100.00
52535;BME280;38443;53.164;5.802;2022-12-18T15:53:54;102355.16;;;-3.64;100.00
52535;BME280;38443;53.164;5.802;2022-12-18T15:56:20;102355.25;;;-3.63;100.00
52535;BME280;38443;53.164;5.802;2022-12-18T15:59:10;102344.81;;;-3.61;100.00
52535;BME280;38443;53.164;5.802;2022-12-18T16:01:37;102337.31;;;-3.55;100.00
52535;BME280;38443;53.164;5.802;2022-12-18T16:04:02;102343.59;;;-3.51;100.00
52535;BME280;38443;53.164;5.802;2022-12-18T16:06:27;102348.25;;;-3.46;100.00
52535;BME280;38443;53.164;5.802;2022-12-18T16:08:53;102342.94;;;-3.47;100.00
52535;BME280;38443;53.164;5.802;2022-12-18T16:11:24;102352.69;;;-3.45;100.00
52535;BME280;38443;53.164;5.802;2022-12-18T16:14:23;102350.22;;;-3.42;100.00
52535;BME280;38443;53.164;5.802;2022-12-18T16:16:53;102353.72;;;-3.41;100.00
52535;BME280;38443;53.164;5.802;2022-12-18T16:19:19;102358.06;;;-3.42;100.00
52535;BME280;38443;53.164;5.802;2022-12-18T16:21:47;102359.78;;;-3.42;100.00
52535;BME280;38443;53.164;5.802;2022-12-18T16:24:16;102364.19;;;-3.41;100.00
52535;BME280;38443;53.164;5.802;2022-12-18T16:26:42;102353.00;;;-3.38;100.00
52535;BME280;38443;53.164;5.802;2022-12-18T16:29:09;102360.13;;;-3.36;100.00
52535;BME280;38443;53.164;5.802;2022-12-18T16:31:34;102354.97;;;-3.34;100.00
52535;BME280;38443;53.164;5.802;2022-12-18T16:36:48;102348.09;;;-3.32;100.00
52535;BME280;38443;53.164;5.802;2022-12-18T16:39:14;102332.59;;;-3.28;100.00
52535;BME280;38443;53.164;5.802;2022-12-18T16:41:39;102337.09;;;-3.25;100.00
52535;BME280;38443;53.164;5.802;2022-12-18T16:44:07;102321.38;;;-3.25;100.00
52535;BME280;38443;53.164;5.802;2022-12-18T16:46:33;102330.31;;;-3.22;100.00
52535;BME280;38443;53.164;5.802;2022-12-18T16:48:59;102323.41;;;-3.19;100.00
52535;BME280;38443;53.164;5.802;2022-12-18T16:51:26;102313.03;;;-3.18;100.00
52535;BME280;38443;53.164;5.802;2022-12-18T16:53:53;102307.03;;;-3.15;100.00
52535;BME280;38443;53.164;5.802;2022-12-18T16:56:19;102302.69;;;-3.15;100.00
52535;BME280;38443;53.164;5.802;2022-12-18T16:58:58;102295.81;;;-3.13;100.00
52535;BME280;38443;53.164;5.802;2022-12-18T17:01:25;102287.22;;;-3.10;100.00
52535;BME280;38443;53.164;5.802;2022-12-18T17:04:03;102280.25;;;-3.10;100.00
52535;BME280;38443;53.164;5.802;2022-12-18T17:06:32;102273.38;;;-3.08;100.00
52535;BME280;38443;53.164;5.802;2022-12-18T17:09:07;102284.75;;;-3.07;100.00
52535;BME280;38443;53.164;5.802;2022-12-18T17:11:34;102283.19;;;-3.04;100.00
52535;BME280;38443;53.164;5.802;2022-12-18T17:14:06;102287.63;;;-3.03;100.00
52535;BME280;38443;53.164;5.802;2022-12-18T17:16:31;102280.78;;;-2.99;100.00
52535;BME280;38443;53.164;5.802;2022-12-18T17:18:57;102287.00;;;-2.97;100.00
52535;BME280;38443;53.164;5.802;2022-12-18T17:21:22;102294.13;;;-2.94;100.00
52535;BME280;38443;53.164;5.802;2022-12-18T17:23:47;102282.97;;;-2.90;100.00
52535;BME280;38443;53.164;5.802;2022-12-18T17:26:13;102276.91;;;-2.89;100.00
52535;BME280;38443;53.164;5.802;2022-12-18T17:28:38;102266.41;;;-2.89;100.00
52535;BME280;38443;53.164;5.802;2022-12-18T17:31:21;102263.88;;;-2.88;100.00
52535;BME280;38443;53.164;5.802;2022-12-18T17:33:47;102230.03;;;-2.83;100.00
52535;BME280;38443;53.164;5.802;2022-12-18T17:36:13;102239.69;;;-2.82;100.00
52535;BME280;38443;53.164;5.802;2022-12-18T17:38:38;102230.13;;;-2.82;100.00
52535;BME280;38443;53.164;5.802;2022-12-18T17:41:06;102227.50;;;-2.82;100.00
52535;BME280;38443;53.164;5.802;2022-12-18T17:43:33;102223.16;;;-2.81;100.00
52535;BME280;38443;53.164;5.802;2022-12-18T17:46:06;102219.56;;;-2.83;100.00
52535;BME280;38443;53.164;5.802;2022-12-18T17:48:32;102225.75;;;-2.81;100.00
52535;BME280;38443;53.164;5.802;2022-12-18T17:51:01;102231.94;;;-2.81;100.00
52535;BME280;38443;53.164;5.802;2022-12-18T17:53:27;102245.16;;;-2.77;100.00
52535;BME280;38443;53.164;5.802;2022-12-18T17:55:59;102238.94;;;-2.79;100.00
52535;BME280;38443;53.164;5.802;2022-12-18T17:58:26;102227.69;;;-2.77;100.00
52535;BME280;38443;53.164;5.802;2022-12-18T18:00:52;102234.75;;;-2.76;100.00
52535;BME280;38443;53.164;5.802;2022-12-18T18:03:17;102232.22;;;-2.74;100.00
52535;BME280;38443;53.164;5.802;2022-12-18T18:05:43;102231.38;;;-2.73;100.00
52535;BME280;38443;53.164;5.802;2022-12-18T18:08:08;102228.91;;;-2.70;100.00
52535;BME280;38443;53.164;5.802;2022-12-18T18:10:34;102219.31;;;-2.70;100.00
52535;BME280;38443;53.164;5.802;2022-12-18T18:13:00;102211.47;;;-2.70;100.00
52535;BME280;38443;53.164;5.802;2022-12-18T18:15:54;102217.59;;;-2.69;100.00
52535;BME280;38443;53.164;5.802;2022-12-18T18:18:19;102214.97;;;-2.69;100.00
52535;BME280;38443;53.164;5.802;2022-12-18T18:20:45;102224.69;;;-2.67;100.00
52535;BME280;38443;53.164;5.802;2022-12-18T18:23:10;102212.50;;;-2.66;100.00
52535;BME280;38443;53.164;5.802;2022-12-18T18:25:37;102212.44;;;-2.68;100.00
52535;BME280;38443;53.164;5.802;2022-12-18T18:28:03;102210.78;;;-2.66;100.00
52535;BME280;38443;53.164;5.802;2022-12-18T18:30:28;102211.81;;;-2.62;100.00
52535;BME280;38443;53.164;5.802;2022-12-18T18:32:54;102210.00;;;-2.63;100.00
52535;BME280;38443;53.164;5.802;2022-12-18T18:35:19;102197.25;;;-2.55;100.00
52535;BME280;38443;53.164;5.802;2022-12-18T18:37:46;102194.91;;;-2.49;100.00
52535;BME280;38443;53.164;5.802;2022-12-18T18:40:12;102194.22;;;-2.45;100.00
52535;BME280;38443;53.164;5.802;2022-12-18T18:42:40;102203.22;;;-2.40;100.00
52535;BME280;38443;53.164;5.802;2022-12-18T18:45:06;102189.63;;;-2.31;100.00